createdAt,value
2019-03-08T06:02:39.980Z,63.10
2019-03-08T06:05:08.764Z,63.00
2019-03-08T06:07:37.343Z,62.90
2019-03-08T06:10:30.690Z,62.90
2019-03-08T06:13:00.060Z,63.00
2019-03-08T06:15:28.301Z,63.10
2019-03-08T06:17:57.082Z,63.30
2019-03-08T06:20:27.279Z,63.60
2019-03-08T06:22:56.331Z,63.70
2019-03-08T06:25:24.642Z,63.80
2019-03-08T06:27:52.852Z,64.20
2019-03-08T06:33:11.839Z,64.10
2019-03-08T06:35:41.702Z,64.20
2019-03-08T06:38:10.049Z,64.20
2019-03-08T06:40:38.320Z,64.40
2019-03-08T06:43:21.631Z,64.50
2019-03-08T06:45:52.125Z,64.60
2019-03-08T06:48:22.236Z,64.90
2019-03-08T06:50:50.599Z,64.80
2019-03-08T06:53:20.062Z,64.70
2019-03-08T06:55:48.758Z,64.80
2019-03-08T06:58:18.991Z,64.70
2019-03-08T07:00:49.056Z,64.60
2019-03-08T07:03:17.474Z,64.40
2019-03-08T07:05:45.867Z,64.40
2019-03-08T07:08:14.268Z,64.70
2019-03-08T07:10:43.267Z,64.50
2019-03-08T07:13:11.717Z,64.40
2019-03-08T07:15:40.101Z,64.20
2019-03-08T07:18:12.597Z,64.90
2019-03-08T07:20:42.700Z,64.60
2019-03-08T07:23:12.791Z,64.90
2019-03-08T07:25:59.423Z,64.60
2019-03-08T07:28:38.727Z,64.30
2019-03-08T07:31:11.178Z,64.40
2019-03-08T07:33:52.698Z,63.90
2019-03-08T07:36:15.755Z,63.80
2019-03-08T07:38:51.443Z,63.90
2019-03-08T07:41:21.418Z,63.00
2019-03-08T07:44:08.730Z,63.30
2019-03-08T07:47:08.253Z,63.10
2019-03-08T07:49:48.513Z,62.50
2019-03-08T07:52:21.251Z,62.50
2019-03-08T07:54:57.305Z,62.00
2019-03-08T07:57:36.777Z,62.10
2019-03-08T08:00:30.407Z,61.70
2019-03-08T08:03:03.639Z,61.70
2019-03-08T08:05:41.160Z,61.50
2019-03-08T08:08:26.086Z,61.80
2019-03-08T08:11:11.490Z,61.20
2019-03-08T08:13:56.621Z,60.90
2019-03-08T08:16:26.646Z,61.20
2019-03-08T08:19:00.393Z,60.70
2019-03-08T08:21:35.550Z,61.10
2019-03-08T08:24:11.416Z,60.90
2019-03-08T08:26:57.766Z,61.30
2019-03-08T08:29:35.197Z,61.50
2019-03-08T08:32:05.658Z,60.80
2019-03-08T08:34:39.247Z,61.00
2019-03-08T08:37:17.224Z,60.50
2019-03-08T08:39:50.264Z,60.40
2019-03-08T08:42:20.951Z,59.70
2019-03-08T08:44:53.010Z,59.90
2019-03-08T08:47:22.858Z,59.40
2019-03-08T08:50:05.568Z,59.40
2019-03-08T08:52:53.583Z,59.50
2019-03-08T08:55:24.513Z,59.80
2019-03-08T08:58:03.319Z,59.90
2019-03-08T09:00:42.054Z,60.40
2019-03-08T09:03:12.988Z,59.60
2019-03-08T09:05:43.028Z,59.40
2019-03-08T09:08:15.598Z,60.00
2019-03-08T09:10:54.157Z,59.80
2019-03-08T09:13:24.556Z,59.60
2019-03-08T09:16:02.214Z,59.50
2019-03-08T09:18:34.810Z,59.30
2019-03-08T09:21:06.502Z,59.30
2019-03-08T09:23:42.668Z,59.90
2019-03-08T09:26:15.854Z,60.70
2019-03-08T09:28:48.923Z,60.70
2019-03-08T09:31:21.994Z,61.00
2019-03-08T09:34:09.104Z,61.40
2019-03-08T09:36:42.386Z,61.10
2019-03-08T09:39:17.553Z,61.40
2019-03-08T09:41:54.579Z,60.30
2019-03-08T09:44:37.783Z,60.60
2019-03-08T09:47:17.394Z,60.50
2019-03-08T09:49:50.186Z,59.20
2019-03-08T09:52:22.123Z,59.00
2019-03-08T09:55:02.395Z,58.40
2019-03-08T09:57:41.748Z,57.70
2019-03-08T10:00:28.987Z,58.20
2019-03-08T10:03:05.862Z,58.70
2019-03-08T10:05:56.687Z,58.10
2019-03-08T10:08:29.961Z,57.60
2019-03-08T10:11:22.648Z,57.20
2019-03-08T10:14:07.220Z,57.90
2019-03-08T10:16:55.484Z,57.90
2019-03-08T10:19:38.649Z,58.00
2019-03-08T10:22:13.229Z,57.20
2019-03-08T10:24:58.394Z,57.40
2019-03-08T10:27:38.064Z,57.20
2019-03-08T10:30:09.571Z,57.80
2019-03-08T10:32:50.767Z,57.90
2019-03-08T10:35:32.585Z,57.40
2019-03-08T10:38:22.096Z,57.90
2019-03-08T10:40:51.832Z,57.70
2019-03-08T10:43:22.373Z,56.90
2019-03-08T10:46:25.262Z,57.40
2019-03-08T10:49:12.891Z,56.60
2019-03-08T10:52:00.222Z,55.50
2019-03-08T10:54:51.156Z,56.20
2019-03-08T10:57:46.455Z,57.40
2019-03-08T11:00:37.065Z,57.00
2019-03-08T11:06:27.213Z,55.70
2019-03-08T12:18:28.166Z,46.80
2019-03-08T12:33:24.854Z,47.50
2019-03-08T12:36:33.070Z,48.30
2019-03-08T12:39:13.274Z,48.30
2019-03-08T12:41:55.934Z,48.30
2019-03-08T12:44:30.415Z,49.40
2019-03-08T12:47:04.427Z,50.00
2019-03-08T12:49:42.299Z,49.80
2019-03-08T12:52:20.934Z,50.60
2019-03-08T12:55:08.274Z,50.80
2019-03-08T12:57:47.399Z,50.80
2019-03-08T13:06:36.772Z,51.60
2019-03-08T13:09:17.258Z,51.90
2019-03-08T13:20:28.850Z,52.20
2019-03-08T13:25:56.649Z,51.20
2019-03-08T13:28:35.719Z,51.00
2019-03-08T13:31:13.214Z,51.10
2019-03-08T13:34:07.399Z,51.40
2019-03-08T13:42:17.349Z,50.50
2019-03-08T13:47:47.894Z,50.50
2019-03-08T13:50:34.233Z,49.80
2019-03-08T13:53:09.799Z,50.50
2019-03-08T13:55:46.923Z,51.40
2019-03-08T13:58:18.422Z,51.20
2019-03-08T14:00:54.488Z,51.80
2019-03-08T14:03:30.252Z,52.70
2019-03-08T14:05:59.806Z,53.70
2019-03-08T14:11:40.811Z,54.80
2019-03-08T14:14:27.164Z,54.80
2019-03-08T14:16:59.681Z,53.80
2019-03-08T14:19:38.252Z,54.10
2019-03-08T14:22:08.727Z,54.50
2019-03-08T14:24:43.333Z,55.00
2019-03-08T14:27:18.252Z,55.30
2019-03-08T14:29:55.214Z,55.50
2019-03-08T14:32:26.967Z,55.40
2019-03-08T14:34:58.172Z,55.30
2019-03-08T14:37:40.190Z,55.50
2019-03-08T14:40:21.997Z,55.00
2019-03-08T14:42:53.025Z,55.20
2019-03-08T14:45:25.334Z,55.60
2019-03-08T14:47:56.743Z,55.80
2019-03-08T14:53:28.511Z,56.00
2019-03-08T14:56:00.112Z,55.90
2019-03-08T14:58:36.402Z,56.70
2019-03-08T15:01:06.335Z,56.80
2019-03-08T15:03:43.889Z,56.10
2019-03-08T15:06:16.555Z,55.80
2019-03-08T15:08:47.249Z,55.50
2019-03-08T15:11:23.527Z,55.20
2019-03-08T15:14:01.537Z,55.60
2019-03-08T15:16:31.607Z,56.20
2019-03-08T15:19:03.772Z,56.20
2019-03-08T15:21:37.876Z,56.70
2019-03-08T15:24:09.293Z,57.30
2019-03-08T15:26:45.469Z,57.10
2019-03-08T15:29:19.766Z,55.90
2019-03-08T15:31:52.056Z,55.40
2019-03-08T15:34:22.491Z,55.40
2019-03-08T15:36:53.316Z,55.60
2019-03-08T15:39:25.023Z,56.40
2019-03-08T15:41:58.448Z,57.00
2019-03-08T15:44:28.195Z,56.90
2019-03-08T15:46:59.173Z,57.20
2019-03-08T15:49:32.926Z,57.20
2019-03-08T15:52:04.663Z,56.90
2019-03-08T15:54:33.587Z,57.60
2019-03-08T15:57:01.963Z,57.40
2019-03-08T15:59:33.859Z,57.40
2019-03-08T16:02:06.314Z,57.00
2019-03-08T16:04:37.658Z,57.00
2019-03-08T16:07:08.408Z,57.20
2019-03-08T16:09:39.520Z,57.30
2019-03-08T16:12:08.767Z,57.90
2019-03-08T16:14:44.148Z,57.80
2019-03-08T16:17:16.008Z,58.00
2019-03-08T16:19:48.891Z,58.60
2019-03-08T16:22:18.460Z,58.60
2019-03-08T16:24:48.752Z,59.20
2019-03-08T16:27:18.531Z,59.10
2019-03-08T16:29:47.031Z,59.80
2019-03-08T16:32:17.908Z,60.40
2019-03-08T16:34:50.818Z,61.00
2019-03-08T16:37:21.239Z,61.60
2019-03-08T16:39:55.172Z,61.60
2019-03-08T16:42:26.571Z,62.40
2019-03-08T16:45:12.571Z,62.80
2019-03-08T16:47:59.062Z,62.90
2019-03-08T16:50:29.139Z,63.10
2019-03-08T16:53:06.889Z,63.60
2019-03-08T16:55:36.297Z,64.20
2019-03-08T16:58:23.295Z,64.50
2019-03-08T17:01:02.644Z,64.70
2019-03-08T17:03:34.165Z,64.70
2019-03-08T17:06:05.937Z,64.70
2019-03-08T17:08:45.672Z,64.60
2019-03-08T17:11:21.758Z,64.70
2019-03-08T17:13:54.915Z,65.20
2019-03-08T17:16:41.518Z,65.30
2019-03-08T17:19:25.006Z,65.40
2019-03-08T17:21:55.306Z,66.00
2019-03-08T17:24:32.271Z,66.40
2019-03-08T17:27:20.223Z,66.60
2019-03-08T17:30:17.824Z,67.00
2019-03-08T17:33:07.664Z,67.10
2019-03-08T17:35:43.386Z,67.40
2019-03-08T17:38:16.830Z,67.90
2019-03-08T17:41:00.244Z,68.40
2019-03-08T17:43:34.119Z,68.70
2019-03-08T17:46:19.625Z,68.50
2019-03-08T17:48:53.322Z,68.80
2019-03-08T17:51:26.201Z,68.90
2019-03-08T17:54:08.595Z,69.00
2019-03-08T17:56:50.883Z,69.20
2019-03-08T17:59:29.388Z,69.40
2019-03-08T18:02:17.619Z,69.30
2019-03-08T18:04:48.253Z,69.40
2019-03-08T18:07:21.383Z,70.00
2019-03-08T18:10:09.459Z,69.90
2019-03-08T18:12:48.463Z,69.90
2019-03-08T18:15:35.684Z,70.00
2019-03-08T18:18:18.899Z,70.00
2019-03-08T18:23:46.809Z,70.50
2019-03-08T18:26:22.827Z,70.80
2019-03-08T18:31:28.107Z,71.70
2019-03-08T18:34:07.734Z,71.20
2019-03-08T18:36:55.835Z,71.20
2019-03-08T18:39:25.944Z,71.10
2019-03-08T18:41:55.966Z,71.40
2019-03-08T18:44:40.367Z,71.40
